Time;durP1;ratioP1;P1;durP2;ratioP2;P2;SDS_P1;SDS_P2;PMS_P1;PMS_P2;Temp;Humidity;BMP_temperature;BMP_pressure;BME280_temperature;BME280_humidity;BME280_pressure;Samples;Min_cycle;Max_cycle;Signal;HPM_P1;HPM_P2
2023/12/15 00:00:30;;;;;;;6.78;5.68;;;;;;;;;;5006264;28;20466;-81
2023/12/15 00:02:57;;;;;;;9.38;5.68;;;;;;;;;;5004459;28;20046;-81
2023/12/15 00:05:25;;;;;;;6.38;5.60;;;;;;;;;;5006499;28;20050;-81
2023/12/15 00:07:52;;;;;;;6.22;5.57;;;;;;;;;;5009356;28;20077;-81
2023/12/15 00:10:19;;;;;;;5.90;5.30;;;;;;;;;;5007959;28;20137;-82
2023/12/15 00:12:47;;;;;;;8.00;5.70;;;;;;;;;;5032873;28;20054;-81
2023/12/15 00:15:14;;;;;;;7.95;6.53;;;;;;;;;;5008373;28;20104;-81
2023/12/15 00:17:41;;;;;;;6.57;5.63;;;;;;;;;;5010223;28;20400;-81
2023/12/15 00:20:09;;;;;;;7.32;5.63;;;;;;;;;;5036704;28;20479;-81
2023/12/15 00:22:37;;;;;;;5.90;5.40;;;;;;;;;;5009219;28;20054;-81
2023/12/15 00:25:04;;;;;;;5.63;5.13;;;;;;;;;;5008324;28;20558;-81
2023/12/15 00:27:31;;;;;;;6.40;5.80;;;;;;;;;;5010930;28;20050;-81
2023/12/15 00:29:58;;;;;;;9.20;6.20;;;;;;;;;;5014286;28;20057;-82
2023/12/15 00:32:26;;;;;;;5.70;5.20;;;;;;;;;;5011361;28;20046;-82
2023/12/15 00:34:53;;;;;;;6.10;5.50;;;;;;;;;;5018443;28;20050;-80
2023/12/15 00:37:20;;;;;;;7.00;6.28;;;;;;;;;;5022769;28;20085;-80
2023/12/15 00:39:48;;;;;;;7.05;6.22;;;;;;;;;;5021129;28;20050;-81
2023/12/15 00:42:15;;;;;;;5.45;4.93;;;;;;;;;;5034878;28;20051;-81
2023/12/15 00:44:42;;;;;;;5.55;5.07;;;;;;;;;;5012519;28;20046;-81
2023/12/15 00:47:10;;;;;;;6.25;5.65;;;;;;;;;;5010511;28;20041;-81
2023/12/15 00:49:37;;;;;;;5.78;5.22;;;;;;;;;;5007557;28;20061;-81
2023/12/15 00:52:05;;;;;;;5.90;5.40;;;;;;;;;;5007137;28;20562;-81
2023/12/15 00:54:33;;;;;;;5.85;5.35;;;;;;;;;;5009616;28;20488;-81
2023/12/15 00:57:00;;;;;;;5.55;5.05;;;;;;;;;;5010167;28;20107;-81
2023/12/15 00:59:27;;;;;;;6.05;5.45;;;;;;;;;;5009458;28;20058;-81
2023/12/15 01:01:55;;;;;;;5.90;5.40;;;;;;;;;;5006655;28;20042;-81
2023/12/15 01:04:22;;;;;;;6.05;5.30;;;;;;;;;;5007390;28;20050;-81
2023/12/15 01:06:49;;;;;;;6.68;5.78;;;;;;;;;;5009645;28;20522;-81
2023/12/15 01:09:17;;;;;;;5.95;5.45;;;;;;;;;;5011167;28;20046;-81
2023/12/15 01:11:44;;;;;;;6.22;5.63;;;;;;;;;;5006853;28;20317;-81
2023/12/15 01:14:11;;;;;;;6.57;5.93;;;;;;;;;;5006332;28;20042;-80
2023/12/15 01:16:48;;;;;;;6.57;5.90;;;;;;;;;;5019352;28;20046;-81
2023/12/15 01:19:17;;;;;;;5.82;5.32;;;;;;;;;;5017726;28;20491;-81
2023/12/15 01:21:44;;;;;;;6.18;5.57;;;;;;;;;;5007564;28;20062;-81
2023/12/15 01:24:12;;;;;;;6.45;5.85;;;;;;;;;;5006931;28;20459;-82
2023/12/15 01:26:39;;;;;;;5.75;5.25;;;;;;;;;;5009669;28;20457;-81
2023/12/15 01:29:07;;;;;;;7.93;5.30;;;;;;;;;;5011037;28;20071;-81
2023/12/15 01:31:34;;;;;;;5.75;5.15;;;;;;;;;;5008798;28;20042;-81
2023/12/15 01:34:01;;;;;;;7.43;5.65;;;;;;;;;;5007117;28;20049;-81
2023/12/15 01:36:29;;;;;;;5.63;5.13;;;;;;;;;;5008610;28;20118;-81
2023/12/15 01:38:56;;;;;;;6.97;5.50;;;;;;;;;;5010293;28;20092;-81
2023/12/15 01:41:23;;;;;;;5.50;5.00;;;;;;;;;;5010176;28;20553;-81
2023/12/15 01:43:51;;;;;;;5.97;5.47;;;;;;;;;;5006925;28;20512;-81
2023/12/15 01:46:18;;;;;;;6.20;5.60;;;;;;;;;;5007031;28;20514;-82
2023/12/15 01:48:45;;;;;;;5.82;5.20;;;;;;;;;;5010670;28;20049;-82
2023/12/15 01:51:14;;;;;;;6.22;5.63;;;;;;;;;;5009711;28;20064;-82
2023/12/15 01:53:43;;;;;;;5.78;5.20;;;;;;;;;;5007066;28;20042;-81
2023/12/15 01:56:11;;;;;;;5.40;4.90;;;;;;;;;;5007414;28;20058;-81
2023/12/15 01:58:38;;;;;;;6.25;5.20;;;;;;;;;;5011964;28;20054;-81
2023/12/15 02:01:07;;;;;;;6.57;5.20;;;;;;;;;;5011130;28;20089;-81
2023/12/15 02:03:35;;;;;;;5.25;4.85;;;;;;;;;;5008625;28;20049;-81
2023/12/15 02:06:02;;;;;;;5.32;4.85;;;;;;;;;;5007958;28;20065;-81
2023/12/15 02:08:30;;;;;;;6.57;5.63;;;;;;;;;;5016807;28;20073;-82
2023/12/15 02:10:57;;;;;;;5.82;5.22;;;;;;;;;;5006636;28;20049;-80
2023/12/15 02:13:24;;;;;;;5.40;4.72;;;;;;;;;;5008036;28;20080;-81
2023/12/15 02:15:52;;;;;;;5.40;4.90;;;;;;;;;;5009486;28;20486;-81
2023/12/15 02:18:19;;;;;;;6.80;5.65;;;;;;;;;;5008286;28;20145;-82
2023/12/15 02:20:46;;;;;;;7.28;5.20;;;;;;;;;;5005654;28;20051;-81
2023/12/15 02:23:14;;;;;;;5.75;5.22;;;;;;;;;;5006868;28;20557;-81
2023/12/15 02:25:41;;;;;;;5.78;5.22;;;;;;;;;;5005488;28;20042;-81
2023/12/15 02:28:08;;;;;;;6.10;5.43;;;;;;;;;;5006237;28;20047;-82
2023/12/15 02:30:35;;;;;;;5.32;4.82;;;;;;;;;;5008189;28;20060;-82
2023/12/15 02:33:03;;;;;;;4.75;4.35;;;;;;;;;;5011333;28;20523;-81
2023/12/15 02:35:30;;;;;;;5.60;4.80;;;;;;;;;;5009696;28;20054;-81
2023/12/15 02:37:58;;;;;;;5.47;4.97;;;;;;;;;;5010591;28;20077;-81
2023/12/15 02:40:25;;;;;;;5.57;5.03;;;;;;;;;;5007303;28;20109;-81
2023/12/15 02:42:52;;;;;;;5.40;4.90;;;;;;;;;;5007625;28;20081;-82
2023/12/15 02:45:19;;;;;;;5.88;5.28;;;;;;;;;;5006136;28;20050;-81
2023/12/15 02:47:46;;;;;;;5.40;4.90;;;;;;;;;;5008973;28;20049;-81
2023/12/15 02:50:14;;;;;;;5.93;4.97;;;;;;;;;;5009619;28;20130;-82
2023/12/15 02:52:42;;;;;;;5.38;4.88;;;;;;;;;;5006401;28;20046;-82
2023/12/15 02:55:11;;;;;;;6.28;5.18;;;;;;;;;;5006197;28;20120;-82
2023/12/15 02:57:38;;;;;;;5.47;4.97;;;;;;;;;;5008628;28;20104;-82
2023/12/15 03:00:06;;;;;;;5.38;4.88;;;;;;;;;;5008914;28;20092;-82
2023/12/15 03:02:33;;;;;;;5.20;4.70;;;;;;;;;;5006667;28;20053;-81
2023/12/15 03:05:01;;;;;;;5.97;5.38;;;;;;;;;;5007317;28;20042;-81
2023/12/15 03:07:28;;;;;;;5.97;5.28;;;;;;;;;;5008653;28;20145;-81
2023/12/15 03:09:55;;;;;;;6.80;6.10;;;;;;;;;;5017562;28;20069;-80
2023/12/15 03:12:22;;;;;;;7.47;6.32;;;;;;;;;;5021870;28;20046;-81
2023/12/15 03:14:50;;;;;;;6.57;5.82;;;;;;;;;;5003658;28;20070;-81
2023/12/15 03:17:17;;;;;;;7.25;5.43;;;;;;;;;;5003854;28;20050;-81
2023/12/15 03:19:44;;;;;;;7.20;5.90;;;;;;;;;;5009196;28;20050;-80
2023/12/15 03:22:13;;;;;;;6.22;5.63;;;;;;;;;;5004441;28;20057;-82
2023/12/15 03:24:40;;;;;;;7.40;5.88;;;;;;;;;;5032434;28;20495;-81
2023/12/15 03:27:07;;;;;;;6.00;5.40;;;;;;;;;;5024738;28;20053;-82
2023/12/15 03:29:35;;;;;;;11.80;5.07;;;;;;;;;;5030331;28;20530;-81
2023/12/15 03:32:02;;;;;;;6.07;5.38;;;;;;;;;;5006429;28;20054;-81
2023/12/15 03:34:29;;;;;;;7.32;5.15;;;;;;;;;;5009659;28;20054;-81
2023/12/15 03:36:56;;;;;;;5.68;4.88;;;;;;;;;;5010003;28;20054;-81
2023/12/15 03:39:24;;;;;;;5.35;4.63;;;;;;;;;;5010027;28;20053;-81
2023/12/15 03:41:51;;;;;;;7.47;5.53;;;;;;;;;;5003721;28;20492;-81
2023/12/15 03:44:18;;;;;;;5.28;4.85;;;;;;;;;;5003530;28;20048;-81
2023/12/15 03:46:45;;;;;;;5.55;5.03;;;;;;;;;;5007765;28;20503;-81
2023/12/15 03:49:13;;;;;;;5.40;4.82;;;;;;;;;;5007766;28;20557;-81
2023/12/15 03:51:40;;;;;;;5.65;4.97;;;;;;;;;;5003042;28;20046;-81
2023/12/15 03:54:07;;;;;;;5.15;4.65;;;;;;;;;;5030138;28;20046;-80
2023/12/15 03:56:34;;;;;;;5.63;4.72;;;;;;;;;;5009707;28;20054;-81
2023/12/15 03:59:02;;;;;;;5.97;4.70;;;;;;;;;;5011843;28;20057;-81
2023/12/15 04:01:29;;;;;;;4.60;4.13;;;;;;;;;;5008912;28;20056;-81
2023/12/15 04:03:58;;;;;;;5.22;4.72;;;;;;;;;;5006905;28;20056;-82
2023/12/15 04:06:25;;;;;;;5.10;4.68;;;;;;;;;;5017823;28;20137;-81
2023/12/15 04:08:52;;;;;;;4.75;4.30;;;;;;;;;;5010947;28;20046;-81
2023/12/15 04:11:20;;;;;;;4.97;4.53;;;;;;;;;;5009934;28;20073;-81
2023/12/15 04:13:48;;;;;;;4.75;4.28;;;;;;;;;;5008824;28;20522;-81
2023/12/15 04:16:15;;;;;;;4.72;4.32;;;;;;;;;;5007464;28;20276;-81
2023/12/15 04:18:42;;;;;;;5.50;4.95;;;;;;;;;;5012486;28;20056;-81
2023/12/15 04:21:10;;;;;;;4.57;4.28;;;;;;;;;;5011087;28;20049;-81
2023/12/15 04:23:37;;;;;;;6.45;5.68;;;;;;;;;;5009486;28;20050;-81
2023/12/15 04:26:04;;;;;;;5.13;4.72;;;;;;;;;;5009059;28;20088;-82
2023/12/15 04:28:32;;;;;;;4.63;4.22;;;;;;;;;;5009745;28;20160;-81
2023/12/15 04:30:59;;;;;;;5.07;4.60;;;;;;;;;;5012646;28;20046;-82
2023/12/15 04:33:26;;;;;;;4.63;4.20;;;;;;;;;;5009480;28;20104;-81
2023/12/15 04:35:53;;;;;;;5.10;4.50;;;;;;;;;;5007476;28;20100;-81
2023/12/15 04:38:21;;;;;;;5.00;4.50;;;;;;;;;;5008237;28;20054;-82
2023/12/15 04:40:49;;;;;;;4.60;4.20;;;;;;;;;;5011890;28;20545;-81
2023/12/15 04:43:16;;;;;;;4.90;4.25;;;;;;;;;;5017020;28;20046;-82
2023/12/15 04:45:44;;;;;;;4.55;4.15;;;;;;;;;;5012453;28;20129;-82
2023/12/15 04:48:11;;;;;;;7.32;6.63;;;;;;;;;;5011940;28;20495;-82
2023/12/15 04:50:39;;;;;;;6.97;6.38;;;;;;;;;;5008223;28;20555;-82
2023/12/15 04:53:07;;;;;;;8.40;7.25;;;;;;;;;;5007685;28;20050;-82
2023/12/15 04:55:34;;;;;;;7.38;6.68;;;;;;;;;;5017237;28;20114;-82
2023/12/15 04:58:02;;;;;;;8.52;6.20;;;;;;;;;;5011248;28;20510;-81
2023/12/15 05:00:29;;;;;;;7.22;5.78;;;;;;;;;;5011553;28;20499;-81
2023/12/15 05:02:56;;;;;;;5.88;5.10;;;;;;;;;;5008642;28;20047;-81
2023/12/15 05:05:23;;;;;;;7.10;5.53;;;;;;;;;;5008619;28;20440;-82
2023/12/15 05:07:51;;;;;;;6.13;5.60;;;;;;;;;;5017986;28;20049;-81
2023/12/15 05:10:18;;;;;;;8.60;5.53;;;;;;;;;;5008746;28;20050;-81
2023/12/15 05:12:46;;;;;;;5.68;5.05;;;;;;;;;;5005788;28;20096;-81
2023/12/15 05:15:14;;;;;;;6.85;6.13;;;;;;;;;;5005967;28;20054;-82
2023/12/15 05:17:41;;;;;;;7.07;5.65;;;;;;;;;;5006453;28;20483;-81
2023/12/15 05:20:09;;;;;;;6.82;5.93;;;;;;;;;;5006504;28;20057;-81
2023/12/15 05:22:36;;;;;;;6.03;5.35;;;;;;;;;;5009209;28;20124;-82
2023/12/15 05:25:03;;;;;;;6.43;5.82;;;;;;;;;;5010031;28;20045;-81
2023/12/15 05:27:31;;;;;;;5.95;5.43;;;;;;;;;;5007573;28;20056;-81
2023/12/15 05:29:58;;;;;;;7.45;6.13;;;;;;;;;;5007123;28;20054;-81
2023/12/15 05:32:25;;;;;;;6.88;5.68;;;;;;;;;;5008839;28;20058;-80
2023/12/15 05:34:52;;;;;;;7.15;5.63;;;;;;;;;;5015587;28;20070;-82
2023/12/15 05:37:20;;;;;;;8.60;5.78;;;;;;;;;;5008250;28;20190;-82
2023/12/15 05:39:47;;;;;;;5.97;5.30;;;;;;;;;;5015323;28;20046;-82
2023/12/15 05:42:14;;;;;;;6.40;5.13;;;;;;;;;;5012629;28;20058;-80
2023/12/15 05:44:42;;;;;;;5.13;4.63;;;;;;;;;;5024308;28;20053;-80
2023/12/15 05:47:09;;;;;;;5.15;4.65;;;;;;;;;;5014768;28;20140;-81
2023/12/15 05:49:40;;;;;;;5.20;4.70;;;;;;;;;;5006780;28;20046;-81
2023/12/15 05:52:08;;;;;;;5.78;5.18;;;;;;;;;;5004651;28;20050;-81
2023/12/15 05:54:35;;;;;;;5.35;4.47;;;;;;;;;;5007142;28;20054;-81
2023/12/15 05:57:02;;;;;;;7.45;5.28;;;;;;;;;;5007855;28;20111;-81
2023/12/15 05:59:30;;;;;;;5.68;4.45;;;;;;;;;;5005912;28;20049;-81
2023/12/15 06:01:57;;;;;;;6.15;4.68;;;;;;;;;;5004672;28;20085;-81
2023/12/15 06:04:24;;;;;;;4.95;4.45;;;;;;;;;;5005171;28;20050;-81
2023/12/15 06:06:52;;;;;;;8.63;5.50;;;;;;;;;;5008983;28;20120;-81
2023/12/15 06:09:20;;;;;;;10.18;6.50;;;;;;;;;;5007933;28;20100;-80
2023/12/15 06:11:48;;;;;;;9.20;6.60;;;;;;;;;;5006548;28;20084;-81
2023/12/15 06:14:16;;;;;;;11.10;7.65;;;;;;;;;;5013565;28;20073;-81
2023/12/15 06:16:43;;;;;;;8.18;6.50;;;;;;;;;;5005588;28;20137;-81
2023/12/15 06:19:10;;;;;;;7.70;6.25;;;;;;;;;;5005957;28;20050;-81
2023/12/15 06:21:38;;;;;;;7.43;5.72;;;;;;;;;;5008863;28;20085;-81
2023/12/15 06:24:08;;;;;;;7.05;5.47;;;;;;;;;;5011188;28;20054;-81
2023/12/15 06:26:36;;;;;;;5.63;5.03;;;;;;;;;;5009889;28;20061;-82
2023/12/15 06:29:03;;;;;;;8.02;5.55;;;;;;;;;;5010463;28;20050;-81
2023/12/15 06:31:31;;;;;;;9.00;5.55;;;;;;;;;;5014003;28;20122;-82
2023/12/15 06:33:58;;;;;;;9.50;5.97;;;;;;;;;;5015007;28;20080;-81
2023/12/15 06:36:26;;;;;;;5.35;4.85;;;;;;;;;;5014369;28;20049;-81
2023/12/15 06:38:57;;;;;;;6.45;5.43;;;;;;;;;;5019774;28;20081;-81
2023/12/15 06:41:24;;;;;;;6.53;5.50;;;;;;;;;;5007646;28;20054;-82
2023/12/15 06:43:52;;;;;;;8.07;5.50;;;;;;;;;;5016838;28;20522;-82
2023/12/15 06:46:19;;;;;;;9.48;5.78;;;;;;;;;;5015845;28;20045;-82
2023/12/15 06:48:46;;;;;;;6.53;5.72;;;;;;;;;;5013601;28;20050;-82
2023/12/15 06:51:14;;;;;;;7.20;6.18;;;;;;;;;;5021828;28;20050;-82
2023/12/15 06:53:41;;;;;;;10.10;6.32;;;;;;;;;;5013990;28;20113;-82
2023/12/15 06:56:09;;;;;;;8.98;6.32;;;;;;;;;;5013636;28;20054;-82
2023/12/15 06:58:36;;;;;;;25.70;19.55;;;;;;;;;;5017821;28;20050;-82
2023/12/15 07:01:04;;;;;;;12.68;9.23;;;;;;;;;;5014432;28;20052;-82
2023/12/15 07:03:32;;;;;;;11.30;7.65;;;;;;;;;;5014794;28;20080;-83
2023/12/15 07:06:00;;;;;;;12.32;7.57;;;;;;;;;;5014190;28;20137;-82
2023/12/15 07:08:27;;;;;;;12.75;7.97;;;;;;;;;;5011735;28;20045;-82
2023/12/15 07:10:55;;;;;;;10.60;8.13;;;;;;;;;;5012556;28;20066;-82
2023/12/15 07:13:22;;;;;;;15.93;9.02;;;;;;;;;;5010998;28;20042;-82
2023/12/15 07:15:49;;;;;;;14.35;8.20;;;;;;;;;;5006649;28;20046;-82
2023/12/15 07:18:16;;;;;;;15.20;8.65;;;;;;;;;;5029654;28;20068;-81
2023/12/15 07:20:44;;;;;;;10.85;7.82;;;;;;;;;;5005163;28;20427;-81
2023/12/15 07:23:11;;;;;;;15.25;8.57;;;;;;;;;;5004991;28;20046;-82
2023/12/15 07:25:38;;;;;;;15.70;9.50;;;;;;;;;;5009429;28;20046;-82
2023/12/15 07:28:06;;;;;;;16.60;7.88;;;;;;;;;;5011915;28;20499;-82
2023/12/15 07:30:33;;;;;;;16.08;8.30;;;;;;;;;;5011296;28;20050;-81
2023/12/15 07:33:00;;;;;;;12.35;8.27;;;;;;;;;;5010025;28;20054;-81
2023/12/15 07:35:28;;;;;;;16.92;8.98;;;;;;;;;;5011162;28;20054;-82
2023/12/15 07:37:59;;;;;;;11.88;8.95;;;;;;;;;;5014555;28;20054;-82
2023/12/15 07:40:27;;;;;;;15.25;8.90;;;;;;;;;;5013220;28;20113;-82
2023/12/15 07:42:55;;;;;;;25.88;19.38;;;;;;;;;;5009642;28;20128;-82
2023/12/15 07:45:22;;;;;;;18.90;13.50;;;;;;;;;;5009930;28;20050;-82
2023/12/15 07:47:49;;;;;;;17.98;11.35;;;;;;;;;;5029125;28;20050;-82
2023/12/15 07:50:17;;;;;;;20.70;9.98;;;;;;;;;;5012284;28;20060;-82
2023/12/15 07:52:44;;;;;;;24.73;14.10;;;;;;;;;;5011187;28;20556;-82
2023/12/15 07:55:12;;;;;;;23.55;16.90;;;;;;;;;;5011407;28;20546;-82
2023/12/15 07:57:39;;;;;;;16.13;10.13;;;;;;;;;;5021197;28;20056;-82
2023/12/15 08:00:10;;;;;;;15.10;9.25;;;;;;;;;;5029335;28;20054;-81
2023/12/15 08:02:38;;;;;;;14.57;10.35;;;;;;;;;;5011076;28;20115;-82
2023/12/15 08:05:06;;;;;;;14.48;8.88;;;;;;;;;;5010514;28;20049;-82
2023/12/15 08:07:33;;;;;;;14.70;9.80;;;;;;;;;;5013828;28;20057;-82
2023/12/15 08:10:01;;;;;;;12.65;9.18;;;;;;;;;;5015449;28;20089;-82
2023/12/15 08:12:28;;;;;;;14.32;10.50;;;;;;;;;;5014087;28;20132;-83
2023/12/15 08:14:55;;;;;;;15.60;10.80;;;;;;;;;;5012843;28;20054;-83
2023/12/15 08:17:22;;;;;;;28.05;17.85;;;;;;;;;;5024396;28;20045;-81
2023/12/15 08:19:50;;;;;;;15.52;11.68;;;;;;;;;;5027474;28;20053;-82
2023/12/15 08:22:17;;;;;;;16.05;11.13;;;;;;;;;;5011837;28;20050;-82
2023/12/15 08:24:45;;;;;;;17.70;12.63;;;;;;;;;;5009077;28;20046;-82
2023/12/15 08:27:13;;;;;;;14.90;10.32;;;;;;;;;;5007924;28;20074;-81
2023/12/15 08:29:42;;;;;;;13.25;9.15;;;;;;;;;;5010647;28;20050;-81
2023/12/15 08:32:09;;;;;;;58.42;33.50;;;;;;;;;;5010809;28;20045;-81
2023/12/15 08:34:36;;;;;;;62.92;38.97;;;;;;;;;;5007406;28;20050;-81
2023/12/15 08:37:04;;;;;;;27.40;16.98;;;;;;;;;;5010273;28;20101;-81
2023/12/15 08:39:31;;;;;;;14.57;10.68;;;;;;;;;;5031047;28;20050;-81
2023/12/15 08:41:58;;;;;;;17.02;11.05;;;;;;;;;;5007925;28;20526;-81
2023/12/15 08:44:25;;;;;;;10.77;7.80;;;;;;;;;;5014110;28;20074;-81
2023/12/15 08:47:00;;;;;;;10.50;7.72;;;;;;;;;;5011422;28;20478;-82
2023/12/15 08:49:28;;;;;;;14.30;7.93;;;;;;;;;;5009716;28;20514;-81
2023/12/15 08:51:56;;;;;;;9.70;7.35;;;;;;;;;;5018401;28;20056;-82
2023/12/15 08:54:23;;;;;;;12.65;8.30;;;;;;;;;;5009169;28;20053;-82
2023/12/15 08:56:50;;;;;;;11.98;8.73;;;;;;;;;;5007618;28;20074;-81
2023/12/15 08:59:18;;;;;;;12.75;8.90;;;;;;;;;;5007794;28;20054;-82
2023/12/15 09:01:45;;;;;;;9.43;7.32;;;;;;;;;;5009719;28;20072;-82
2023/12/15 09:04:12;;;;;;;10.30;7.97;;;;;;;;;;5002658;28;20053;-82
2023/12/15 09:06:39;;;;;;;10.63;6.93;;;;;;;;;;5016075;28;20058;-82
2023/12/15 09:09:12;;;;;;;8.55;6.70;;;;;;;;;;5008619;28;20046;-82
2023/12/15 09:11:40;;;;;;;11.52;6.90;;;;;;;;;;5011853;28;20056;-81
2023/12/15 09:14:07;;;;;;;10.50;6.95;;;;;;;;;;5009595;28;20140;-81
2023/12/15 09:16:35;;;;;;;11.70;6.60;;;;;;;;;;5013286;28;20088;-81
2023/12/15 09:19:02;;;;;;;12.70;7.50;;;;;;;;;;5004456;28;20046;-81
2023/12/15 09:21:30;;;;;;;9.27;7.47;;;;;;;;;;5005868;28;20054;-81
2023/12/15 09:23:57;;;;;;;9.23;6.78;;;;;;;;;;5007775;28;20054;-81
2023/12/15 09:26:25;;;;;;;9.40;6.97;;;;;;;;;;5005585;28;20070;-81
2023/12/15 09:28:52;;;;;;;12.52;10.00;;;;;;;;;;5009290;28;20042;-81
2023/12/15 09:31:20;;;;;;;7.85;6.35;;;;;;;;;;4999934;28;20075;-81
2023/12/15 09:33:48;;;;;;;9.35;7.57;;;;;;;;;;5009378;28;20129;-82
2023/12/15 09:36:16;;;;;;;10.73;8.40;;;;;;;;;;5016449;28;20109;-81
2023/12/15 09:38:43;;;;;;;15.23;10.45;;;;;;;;;;5007964;28;20052;-82
2023/12/15 09:41:10;;;;;;;20.55;13.50;;;;;;;;;;5008046;28;20045;-83
2023/12/15 09:43:38;;;;;;;13.95;9.90;;;;;;;;;;5006753;28;20102;-83
2023/12/15 09:46:05;;;;;;;11.65;7.80;;;;;;;;;;5005688;28;20050;-83
2023/12/15 09:48:33;;;;;;;11.73;8.50;;;;;;;;;;5014003;28;20109;-83
2023/12/15 09:51:02;;;;;;;13.07;7.53;;;;;;;;;;5004217;28;20046;-82
2023/12/15 09:53:34;;;;;;;9.40;6.97;;;;;;;;;;5029102;28;20049;-82
2023/12/15 09:56:02;;;;;;;8.98;6.35;;;;;;;;;;5005831;28;20051;-83
2023/12/15 09:58:29;;;;;;;8.00;6.35;;;;;;;;;;5006361;28;20054;-82
2023/12/15 10:00:57;;;;;;;8.07;6.00;;;;;;;;;;5010088;28;20125;-83
2023/12/15 10:03:24;;;;;;;6.07;5.40;;;;;;;;;;5009423;28;20530;-83
2023/12/15 10:05:52;;;;;;;7.22;5.45;;;;;;;;;;5032210;28;20054;-83
2023/12/15 10:08:23;;;;;;;6.30;5.40;;;;;;;;;;5007809;28;20482;-83
2023/12/15 10:10:51;;;;;;;17.58;11.05;;;;;;;;;;5010676;28;20495;-82
2023/12/15 10:13:19;;;;;;;6.78;5.97;;;;;;;;;;5009286;28;20042;-83
2023/12/15 10:15:53;;;;;;;6.50;5.78;;;;;;;;;;5006500;28;20054;-83
2023/12/15 10:18:20;;;;;;;6.13;5.45;;;;;;;;;;5009221;28;20062;-83
2023/12/15 10:21:04;;;;;;;6.28;5.60;;;;;;;;;;5013207;28;20081;-83
2023/12/15 10:23:32;;;;;;;7.10;5.75;;;;;;;;;;5008993;28;20389;-82
2023/12/15 10:25:59;;;;;;;11.93;6.38;;;;;;;;;;5005945;28;20120;-82
2023/12/15 10:28:27;;;;;;;7.85;6.00;;;;;;;;;;5030571;28;20050;-82
2023/12/15 10:30:54;;;;;;;7.85;5.78;;;;;;;;;;5006689;28;20104;-83
2023/12/15 10:33:22;;;;;;;7.32;6.30;;;;;;;;;;5007883;28;20053;-83
2023/12/15 10:35:50;;;;;;;6.18;5.38;;;;;;;;;;5010796;28;20046;-83
2023/12/15 10:38:17;;;;;;;6.15;5.53;;;;;;;;;;5010863;28;20441;-83
2023/12/15 10:40:44;;;;;;;7.45;6.13;;;;;;;;;;5012085;28;20050;-83
2023/12/15 10:43:12;;;;;;;6.07;5.50;;;;;;;;;;5011023;28;20050;-83
2023/12/15 10:45:39;;;;;;;9.15;6.05;;;;;;;;;;5008962;28;20042;-83
2023/12/15 10:48:08;;;;;;;6.90;5.30;;;;;;;;;;5009845;28;20054;-82
2023/12/15 10:50:36;;;;;;;6.63;5.93;;;;;;;;;;5020285;28;20064;-82
2023/12/15 10:53:04;;;;;;;6.38;5.30;;;;;;;;;;5027284;28;20057;-82
2023/12/15 10:55:32;;;;;;;8.93;5.88;;;;;;;;;;5008701;28;20046;-82
2023/12/15 10:58:01;;;;;;;9.07;5.78;;;;;;;;;;5007769;28;20046;-80
2023/12/15 11:00:31;;;;;;;7.07;5.50;;;;;;;;;;5005361;28;20056;-80
2023/12/15 11:02:59;;;;;;;6.78;5.57;;;;;;;;;;5004463;28;20472;-80
2023/12/15 11:05:26;;;;;;;6.13;5.40;;;;;;;;;;5011614;28;20054;-81
2023/12/15 11:08:02;;;;;;;7.47;5.38;;;;;;;;;;5007879;28;20491;-81
2023/12/15 11:10:29;;;;;;;6.68;5.32;;;;;;;;;;5005443;28;20069;-80
2023/12/15 11:12:57;;;;;;;7.15;5.60;;;;;;;;;;5003630;28;20054;-80
2023/12/15 11:15:26;;;;;;;8.68;7.00;;;;;;;;;;5004910;28;20054;-80
2023/12/15 11:18:00;;;;;;;8.77;6.40;;;;;;;;;;5007207;28;20419;-80
2023/12/15 11:20:28;;;;;;;12.05;8.15;;;;;;;;;;5006105;28;20057;-81
2023/12/15 11:23:09;;;;;;;5.82;5.30;;;;;;;;;;5004300;28;20046;-79
2023/12/15 11:25:38;;;;;;;7.18;5.05;;;;;;;;;;5006974;28;20062;-81
2023/12/15 11:28:09;;;;;;;6.38;5.25;;;;;;;;;;5007358;28;20041;-81
2023/12/15 11:30:39;;;;;;;6.72;4.80;;;;;;;;;;5004660;28;20064;-81
2023/12/15 11:33:24;;;;;;;5.38;4.85;;;;;;;;;;5011514;28;20044;-81
2023/12/15 11:35:53;;;;;;;7.82;5.38;;;;;;;;;;5005085;28;20055;-80
2023/12/15 11:38:24;;;;;;;6.05;4.55;;;;;;;;;;5013087;28;20054;-80
2023/12/15 11:40:53;;;;;;;7.72;5.03;;;;;;;;;;5007419;28;20478;-80
2023/12/15 11:43:20;;;;;;;5.95;5.35;;;;;;;;;;5006074;28;20054;-80
2023/12/15 11:45:48;;;;;;;6.53;5.18;;;;;;;;;;5015812;28;20466;-81
2023/12/15 11:48:16;;;;;;;7.93;6.47;;;;;;;;;;5006211;28;20053;-80
2023/12/15 11:50:44;;;;;;;11.48;6.53;;;;;;;;;;5005591;28;20047;-80
2023/12/15 11:53:15;;;;;;;17.33;13.65;;;;;;;;;;5013512;28;20073;-80
2023/12/15 11:55:49;;;;;;;5.28;4.70;;;;;;;;;;5006735;28;20097;-80
2023/12/15 11:58:20;;;;;;;5.65;4.57;;;;;;;;;;5015751;28;20049;-81
2023/12/15 12:00:47;;;;;;;5.10;4.60;;;;;;;;;;5006589;28;20054;-80
2023/12/15 12:03:16;;;;;;;5.18;4.68;;;;;;;;;;5030154;28;20120;-81
2023/12/15 12:05:47;;;;;;;5.13;4.50;;;;;;;;;;5004286;28;20500;-80
2023/12/15 12:08:15;;;;;;;4.90;4.43;;;;;;;;;;5002891;28;20046;-80
2023/12/15 12:10:42;;;;;;;5.40;4.63;;;;;;;;;;5014148;28;20050;-81
2023/12/15 12:13:11;;;;;;;5.43;4.50;;;;;;;;;;5006535;28;20466;-79
2023/12/15 12:15:52;;;;;;;6.35;4.25;;;;;;;;;;5011093;28;20100;-79
2023/12/15 12:18:20;;;;;;;6.57;5.13;;;;;;;;;;5010378;28;20574;-79
2023/12/15 12:20:48;;;;;;;6.20;3.88;;;;;;;;;;5033770;28;20522;-79
2023/12/15 12:23:16;;;;;;;4.80;3.88;;;;;;;;;;5014101;28;20110;-80
2023/12/15 12:25:55;;;;;;;6.38;4.28;;;;;;;;;;5026572;28;20057;-79
2023/12/15 12:28:23;;;;;;;6.15;4.35;;;;;;;;;;5001382;28;20065;-80
2023/12/15 12:30:50;;;;;;;6.72;4.85;;;;;;;;;;5014056;28;20047;-79
2023/12/15 12:33:19;;;;;;;16.27;12.27;;;;;;;;;;5007473;28;20046;-80
2023/12/15 12:35:46;;;;;;;6.80;5.20;;;;;;;;;;5009961;28;20499;-79
2023/12/15 12:38:14;;;;;;;9.57;8.38;;;;;;;;;;5009282;28;20054;-79
2023/12/15 12:40:42;;;;;;;6.30;5.32;;;;;;;;;;5006109;28;20109;-79
2023/12/15 12:43:10;;;;;;;6.05;4.70;;;;;;;;;;5029494;28;20050;-79
2023/12/15 12:45:38;;;;;;;4.72;4.32;;;;;;;;;;5019012;28;20042;-80
2023/12/15 12:48:05;;;;;;;5.50;5.00;;;;;;;;;;5033307;28;20050;-79
2023/12/15 12:50:32;;;;;;;5.28;4.38;;;;;;;;;;5006445;28;20042;-79
2023/12/15 12:53:01;;;;;;;8.25;4.40;;;;;;;;;;5005542;28;20046;-80
2023/12/15 12:55:28;;;;;;;5.60;4.97;;;;;;;;;;5007645;28;20077;-79
2023/12/15 12:57:56;;;;;;;6.35;5.05;;;;;;;;;;5009090;28;20064;-80
2023/12/15 13:00:23;;;;;;;7.10;4.60;;;;;;;;;;5009297;28;20492;-79
2023/12/15 13:02:50;;;;;;;8.13;5.03;;;;;;;;;;5014017;28;20057;-79
2023/12/15 13:05:18;;;;;;;7.20;5.63;;;;;;;;;;5005656;28;20058;-80
2023/12/15 13:07:46;;;;;;;6.57;5.07;;;;;;;;;;5009114;28;20042;-79
2023/12/15 13:10:14;;;;;;;4.65;4.25;;;;;;;;;;5020988;28;20073;-81
2023/12/15 13:12:51;;;;;;;5.83;4.57;;;;;;;;;;5015170;28;20042;-80
2023/12/15 13:15:19;;;;;;;5.40;3.50;;;;;;;;;;5021970;28;20794;-80
2023/12/15 13:17:46;;;;;;;6.00;3.88;;;;;;;;;;5011125;28;20046;-80
2023/12/15 13:20:13;;;;;;;4.05;3.65;;;;;;;;;;5012014;28;20500;-80
2023/12/15 13:22:41;;;;;;;4.60;4.20;;;;;;;;;;5015567;28;20061;-79
2023/12/15 13:25:15;;;;;;;7.50;4.78;;;;;;;;;;5022963;28;20050;-80
2023/12/15 13:27:48;;;;;;;4.90;4.15;;;;;;;;;;5019281;28;20129;-80
2023/12/15 13:30:15;;;;;;;5.07;3.33;;;;;;;;;;5008113;28;20480;-80
2023/12/15 13:32:43;;;;;;;4.68;4.20;;;;;;;;;;5005847;28;20046;-80
2023/12/15 13:35:11;;;;;;;3.10;2.90;;;;;;;;;;5005750;28;20050;-80
2023/12/15 13:37:39;;;;;;;3.50;3.03;;;;;;;;;;5015433;28;20066;-79
2023/12/15 13:40:06;;;;;;;4.90;3.03;;;;;;;;;;5011226;28;20101;-79
2023/12/15 13:42:35;;;;;;;2.85;2.58;;;;;;;;;;5006763;28;20049;-80
2023/12/15 13:45:05;;;;;;;2.58;2.38;;;;;;;;;;5007801;28;20076;-80
2023/12/15 13:47:33;;;;;;;3.72;3.42;;;;;;;;;;5005759;28;20085;-80
2023/12/15 13:50:00;;;;;;;3.40;3.00;;;;;;;;;;5004667;28;20109;-80
2023/12/15 13:52:28;;;;;;;2.72;2.53;;;;;;;;;;5007101;28;20046;-80
2023/12/15 13:54:55;;;;;;;3.22;2.92;;;;;;;;;;5015759;28;20542;-80
2023/12/15 13:57:23;;;;;;;2.85;2.45;;;;;;;;;;5008184;28;20046;-80
2023/12/15 13:59:51;;;;;;;2.78;2.58;;;;;;;;;;5004225;28;20101;-80
2023/12/15 14:02:18;;;;;;;2.50;2.30;;;;;;;;;;5014669;28;20065;-79
2023/12/15 14:04:45;;;;;;;2.92;2.20;;;;;;;;;;5007741;28;20053;-79
2023/12/15 14:07:13;;;;;;;2.47;2.22;;;;;;;;;;5007166;28;20451;-79
2023/12/15 14:09:40;;;;;;;2.92;2.72;;;;;;;;;;5004788;28;20051;-79
2023/12/15 14:12:07;;;;;;;3.60;2.70;;;;;;;;;;5004219;28;20050;-79
2023/12/15 14:14:35;;;;;;;3.35;2.30;;;;;;;;;;5009374;28;20057;-79
2023/12/15 14:17:02;;;;;;;2.53;2.33;;;;;;;;;;5012164;28;20559;-79
2023/12/15 14:19:30;;;;;;;3.20;2.60;;;;;;;;;;5006598;28;20047;-80
2023/12/15 14:21:58;;;;;;;4.88;2.55;;;;;;;;;;5010177;28;20081;-80
2023/12/15 14:24:25;;;;;;;3.85;2.60;;;;;;;;;;5007509;28;20050;-80
2023/12/15 14:26:52;;;;;;;4.32;2.70;;;;;;;;;;5004947;28;20097;-80
2023/12/15 14:29:20;;;;;;;3.47;2.40;;;;;;;;;;5005994;28;20112;-80
2023/12/15 14:31:47;;;;;;;3.42;3.03;;;;;;;;;;5010252;28;20403;-80
2023/12/15 14:34:14;;;;;;;2.67;2.47;;;;;;;;;;5008789;28;20125;-80
2023/12/15 14:36:42;;;;;;;5.63;3.60;;;;;;;;;;5006510;28;20054;-80
2023/12/15 14:39:10;;;;;;;4.57;3.10;;;;;;;;;;5005748;28;20063;-80
2023/12/15 14:41:37;;;;;;;4.63;3.60;;;;;;;;;;5016650;28;20491;-80